sensor_id;sensor_type;location;lat;lon;timestamp;P1;durP1;ratioP1;P2;durP2;ratioP2
40022;SDS011;25713;-35.352;149.036;2023-08-07T00:02:01;1.90;;;0.98;;
40022;SDS011;25713;-35.352;149.036;2023-08-07T00:04:30;2.97;;;0.93;;
40022;SDS011;25713;-35.352;149.036;2023-08-07T00:06:59;1.10;;;0.95;;
40022;SDS011;25713;-35.352;149.036;2023-08-07T00:09:31;1.30;;;1.00;;
40022;SDS011;25713;-35.352;149.036;2023-08-07T00:12:00;1.80;;;1.08;;
40022;SDS011;25713;-35.352;149.036;2023-08-07T00:14:30;0.77;;;0.68;;
40022;SDS011;25713;-35.352;149.036;2023-08-07T00:16:59;1.77;;;0.98;;
40022;SDS011;25713;-35.352;149.036;2023-08-07T00:19:28;1.20;;;0.85;;
40022;SDS011;25713;-35.352;149.036;2023-08-07T00:21:58;1.23;;;1.10;;
40022;SDS011;25713;-35.352;149.036;2023-08-07T00:24:27;1.77;;;1.05;;
40022;SDS011;25713;-35.352;149.036;2023-08-07T00:26:59;3.75;;;1.00;;
40022;SDS011;25713;-35.352;149.036;2023-08-07T00:29:28;0.88;;;0.75;;
40022;SDS011;25713;-35.352;149.036;2023-08-07T00:31:57;1.10;;;0.90;;
40022;SDS011;25713;-35.352;149.036;2023-08-07T00:34:27;2.15;;;0.95;;
40022;SDS011;25713;-35.352;149.036;2023-08-07T00:36:56;2.75;;;1.10;;
40022;SDS011;25713;-35.352;149.036;2023-08-07T00:39:26;1.45;;;1.10;;
40022;SDS011;25713;-35.352;149.036;2023-08-07T00:41:57;1.00;;;0.82;;
40022;SDS011;25713;-35.352;149.036;2023-08-07T00:44:27;1.38;;;0.90;;
40022;SDS011;25713;-35.352;149.036;2023-08-07T00:46:56;1.98;;;0.93;;
40022;SDS011;25713;-35.352;149.036;2023-08-07T00:49:26;1.45;;;1.17;;
40022;SDS011;25713;-35.352;149.036;2023-08-07T00:51:56;1.92;;;0.90;;
40022;SDS011;25713;-35.352;149.036;2023-08-07T00:54:25;1.25;;;0.70;;
40022;SDS011;25713;-35.352;149.036;2023-08-07T00:56:55;1.35;;;0.82;;
40022;SDS011;25713;-35.352;149.036;2023-08-07T00:59:34;1.13;;;1.00;;
40022;SDS011;25713;-35.352;149.036;2023-08-07T01:02:04;2.72;;;0.90;;
40022;SDS011;25713;-35.352;149.036;2023-08-07T01:04:34;0.90;;;0.80;;
40022;SDS011;25713;-35.352;149.036;2023-08-07T01:07:04;1.02;;;0.93;;
40022;SDS011;25713;-35.352;149.036;2023-08-07T01:09:33;2.55;;;0.90;;
40022;SDS011;25713;-35.352;149.036;2023-08-07T01:12:08;1.88;;;0.77;;
40022;SDS011;25713;-35.352;149.036;2023-08-07T01:14:44;1.13;;;0.80;;
40022;SDS011;25713;-35.352;149.036;2023-08-07T01:17:20;0.98;;;0.80;;
40022;SDS011;25713;-35.352;149.036;2023-08-07T01:19:51;1.20;;;0.80;;
40022;SDS011;25713;-35.352;149.036;2023-08-07T01:22:24;1.08;;;0.70;;
40022;SDS011;25713;-35.352;149.036;2023-08-07T01:24:53;1.48;;;0.82;;
40022;SDS011;25713;-35.352;149.036;2023-08-07T01:27:30;1.08;;;0.80;;
40022;SDS011;25713;-35.352;149.036;2023-08-07T01:30:06;1.10;;;1.00;;
40022;SDS011;25713;-35.352;149.036;2023-08-07T01:32:47;1.20;;;0.80;;
40022;SDS011;25713;-35.352;149.036;2023-08-07T01:35:22;2.35;;;1.45;;
40022;SDS011;25713;-35.352;149.036;2023-08-07T01:37:58;1.20;;;0.80;;
40022;SDS011;25713;-35.352;149.036;2023-08-07T01:40:29;1.08;;;0.73;;
40022;SDS011;25713;-35.352;149.036;2023-08-07T01:42:59;0.82;;;0.68;;
40022;SDS011;25713;-35.352;149.036;2023-08-07T01:45:29;0.98;;;0.60;;
40022;SDS011;25713;-35.352;149.036;2023-08-07T01:47:59;1.00;;;0.73;;
40022;SDS011;25713;-35.352;149.036;2023-08-07T01:50:28;1.35;;;0.75;;
40022;SDS011;25713;-35.352;149.036;2023-08-07T01:53:01;1.65;;;0.70;;
40022;SDS011;25713;-35.352;149.036;2023-08-07T01:55:30;0.60;;;0.60;;
40022;SDS011;25713;-35.352;149.036;2023-08-07T01:58:00;2.60;;;1.00;;
40022;SDS011;25713;-35.352;149.036;2023-08-07T02:00:29;0.60;;;0.60;;
40022;SDS011;25713;-35.352;149.036;2023-08-07T02:02:58;0.98;;;0.57;;
40022;SDS011;25713;-35.352;149.036;2023-08-07T02:05:28;2.22;;;0.70;;
40022;SDS011;25713;-35.352;149.036;2023-08-07T02:07:57;0.80;;;0.70;;
40022;SDS011;25713;-35.352;149.036;2023-08-07T02:10:29;1.17;;;0.70;;
40022;SDS011;25713;-35.352;149.036;2023-08-07T02:12:59;0.80;;;0.60;;
40022;SDS011;25713;-35.352;149.036;2023-08-07T02:15:28;0.90;;;0.60;;
40022;SDS011;25713;-35.352;149.036;2023-08-07T02:17:57;1.08;;;0.88;;
40022;SDS011;25713;-35.352;149.036;2023-08-07T02:20:27;1.02;;;0.65;;
40022;SDS011;25713;-35.352;149.036;2023-08-07T02:22:56;2.10;;;0.75;;
40022;SDS011;25713;-35.352;149.036;2023-08-07T02:25:30;1.10;;;0.63;;
40022;SDS011;25713;-35.352;149.036;2023-08-07T02:28:00;0.80;;;0.70;;
40022;SDS011;25713;-35.352;149.036;2023-08-07T02:30:29;0.68;;;0.50;;
40022;SDS011;25713;-35.352;149.036;2023-08-07T02:32:59;0.60;;;0.60;;
40022;SDS011;25713;-35.352;149.036;2023-08-07T02:35:29;0.60;;;0.60;;
40022;SDS011;25713;-35.352;149.036;2023-08-07T02:37:58;0.80;;;0.70;;
40022;SDS011;25713;-35.352;149.036;2023-08-07T02:40:28;2.42;;;0.70;;
40022;SDS011;25713;-35.352;149.036;2023-08-07T02:43:00;1.17;;;0.70;;
40022;SDS011;25713;-35.352;149.036;2023-08-07T02:45:29;1.25;;;0.70;;
40022;SDS011;25713;-35.352;149.036;2023-08-07T02:47:59;2.35;;;0.75;;
40022;SDS011;25713;-35.352;149.036;2023-08-07T02:50:29;1.20;;;0.70;;
40022;SDS011;25713;-35.352;149.036;2023-08-07T02:52:59;1.90;;;0.90;;
40022;SDS011;25713;-35.352;149.036;2023-08-07T02:55:28;0.60;;;0.60;;
40022;SDS011;25713;-35.352;149.036;2023-08-07T02:58:00;1.08;;;0.85;;
40022;SDS011;25713;-35.352;149.036;2023-08-07T03:00:30;1.85;;;0.65;;
40022;SDS011;25713;-35.352;149.036;2023-08-07T03:03:02;0.98;;;0.80;;
40022;SDS011;25713;-35.352;149.036;2023-08-07T03:05:31;0.65;;;0.63;;
40022;SDS011;25713;-35.352;149.036;2023-08-07T03:08:01;0.95;;;0.80;;
40022;SDS011;25713;-35.352;149.036;2023-08-07T03:10:34;1.48;;;0.80;;
40022;SDS011;25713;-35.352;149.036;2023-08-07T03:13:03;1.88;;;0.80;;
40022;SDS011;25713;-35.352;149.036;2023-08-07T03:15:33;1.40;;;0.77;;
40022;SDS011;25713;-35.352;149.036;2023-08-07T03:18:02;1.70;;;0.80;;
40022;SDS011;25713;-35.352;149.036;2023-08-07T03:20:32;0.70;;;0.60;;
40022;SDS011;25713;-35.352;149.036;2023-08-07T03:23:03;1.35;;;0.60;;
40022;SDS011;25713;-35.352;149.036;2023-08-07T03:25:36;2.13;;;0.77;;
40022;SDS011;25713;-35.352;149.036;2023-08-07T03:28:05;1.70;;;0.65;;
40022;SDS011;25713;-35.352;149.036;2023-08-07T03:30:35;1.85;;;0.80;;
40022;SDS011;25713;-35.352;149.036;2023-08-07T03:33:04;1.52;;;0.65;;
40022;SDS011;25713;-35.352;149.036;2023-08-07T03:35:33;2.15;;;0.63;;
40022;SDS011;25713;-35.352;149.036;2023-08-07T03:38:03;1.15;;;0.70;;
40022;SDS011;25713;-35.352;149.036;2023-08-07T03:40:33;1.30;;;0.70;;
40022;SDS011;25713;-35.352;149.036;2023-08-07T03:43:07;1.13;;;0.70;;
40022;SDS011;25713;-35.352;149.036;2023-08-07T03:45:37;2.58;;;0.70;;
40022;SDS011;25713;-35.352;149.036;2023-08-07T03:48:08;0.63;;;0.57;;
40022;SDS011;25713;-35.352;149.036;2023-08-07T03:50:37;3.38;;;0.70;;
40022;SDS011;25713;-35.352;149.036;2023-08-07T03:53:07;2.20;;;0.85;;
40022;SDS011;25713;-35.352;149.036;2023-08-07T03:55:45;1.83;;;0.60;;
40022;SDS011;25713;-35.352;149.036;2023-08-07T03:58:20;1.05;;;0.60;;
40022;SDS011;25713;-35.352;149.036;2023-08-07T04:00:50;0.75;;;0.40;;
40022;SDS011;25713;-35.352;149.036;2023-08-07T04:03:20;0.57;;;0.43;;
40022;SDS011;25713;-35.352;149.036;2023-08-07T04:05:51;0.40;;;0.40;;
40022;SDS011;25713;-35.352;149.036;2023-08-07T04:08:23;1.13;;;0.60;;
40022;SDS011;25713;-35.352;149.036;2023-08-07T04:11:02;1.38;;;0.50;;
40022;SDS011;25713;-35.352;149.036;2023-08-07T04:13:34;0.82;;;0.60;;
40022;SDS011;25713;-35.352;149.036;2023-08-07T04:16:04;1.50;;;0.50;;
40022;SDS011;25713;-35.352;149.036;2023-08-07T04:18:33;0.68;;;0.50;;
40022;SDS011;25713;-35.352;149.036;2023-08-07T04:21:04;0.55;;;0.55;;
40022;SDS011;25713;-35.352;149.036;2023-08-07T04:23:34;0.98;;;0.60;;
40022;SDS011;25713;-35.352;149.036;2023-08-07T04:26:06;0.60;;;0.60;;
40022;SDS011;25713;-35.352;149.036;2023-08-07T04:28:36;0.40;;;0.40;;
40022;SDS011;25713;-35.352;149.036;2023-08-07T04:31:05;0.50;;;0.50;;
40022;SDS011;25713;-35.352;149.036;2023-08-07T04:33:35;0.65;;;0.57;;
40022;SDS011;25713;-35.352;149.036;2023-08-07T04:36:05;1.15;;;0.40;;
40022;SDS011;25713;-35.352;149.036;2023-08-07T04:38:34;1.73;;;0.50;;
40022;SDS011;25713;-35.352;149.036;2023-08-07T04:41:08;0.47;;;0.47;;
40022;SDS011;25713;-35.352;149.036;2023-08-07T04:43:37;0.63;;;0.50;;
40022;SDS011;25713;-35.352;149.036;2023-08-07T04:46:06;0.65;;;0.50;;
40022;SDS011;25713;-35.352;149.036;2023-08-07T04:48:36;0.90;;;0.50;;
40022;SDS011;25713;-35.352;149.036;2023-08-07T04:51:05;0.80;;;0.60;;
40022;SDS011;25713;-35.352;149.036;2023-08-07T04:53:35;0.60;;;0.50;;
40022;SDS011;25713;-35.352;149.036;2023-08-07T04:56:09;0.55;;;0.40;;
40022;SDS011;25713;-35.352;149.036;2023-08-07T04:58:38;0.63;;;0.57;;
40022;SDS011;25713;-35.352;149.036;2023-08-07T05:01:08;0.60;;;0.60;;
40022;SDS011;25713;-35.352;149.036;2023-08-07T05:03:37;1.73;;;0.80;;
40022;SDS011;25713;-35.352;149.036;2023-08-07T05:06:07;0.50;;;0.50;;
40022;SDS011;25713;-35.352;149.036;2023-08-07T05:08:36;0.88;;;0.55;;
40022;SDS011;25713;-35.352;149.036;2023-08-07T05:11:08;0.90;;;0.57;;
40022;SDS011;25713;-35.352;149.036;2023-08-07T05:13:37;1.92;;;0.60;;
40022;SDS011;25713;-35.352;149.036;2023-08-07T05:16:07;0.40;;;0.40;;
40022;SDS011;25713;-35.352;149.036;2023-08-07T05:18:36;2.00;;;0.47;;
40022;SDS011;25713;-35.352;149.036;2023-08-07T05:21:06;0.40;;;0.40;;
40022;SDS011;25713;-35.352;149.036;2023-08-07T05:23:35;0.50;;;0.50;;
40022;SDS011;25713;-35.352;149.036;2023-08-07T05:26:04;1.13;;;0.60;;
40022;SDS011;25713;-35.352;149.036;2023-08-07T05:28:38;0.50;;;0.50;;
40022;SDS011;25713;-35.352;149.036;2023-08-07T05:31:07;0.70;;;0.60;;
40022;SDS011;25713;-35.352;149.036;2023-08-07T05:33:37;0.50;;;0.40;;
40022;SDS011;25713;-35.352;149.036;2023-08-07T05:36:06;0.57;;;0.45;;
40022;SDS011;25713;-35.352;149.036;2023-08-07T05:38:36;0.95;;;0.50;;
40022;SDS011;25713;-35.352;149.036;2023-08-07T05:41:08;1.63;;;0.50;;
40022;SDS011;25713;-35.352;149.036;2023-08-07T05:46:06;0.75;;;0.65;;
40022;SDS011;25713;-35.352;149.036;2023-08-07T05:48:35;0.75;;;0.60;;
40022;SDS011;25713;-35.352;149.036;2023-08-07T05:51:05;0.60;;;0.50;;
40022;SDS011;25713;-35.352;149.036;2023-08-07T05:53:34;0.50;;;0.50;;
40022;SDS011;25713;-35.352;149.036;2023-08-07T05:56:04;0.65;;;0.50;;
40022;SDS011;25713;-35.352;149.036;2023-08-07T05:58:35;0.50;;;0.40;;
40022;SDS011;25713;-35.352;149.036;2023-08-07T06:01:05;1.20;;;0.55;;
40022;SDS011;25713;-35.352;149.036;2023-08-07T06:03:34;0.47;;;0.40;;
40022;SDS011;25713;-35.352;149.036;2023-08-07T06:06:04;1.38;;;0.40;;
40022;SDS011;25713;-35.352;149.036;2023-08-07T06:08:33;0.80;;;0.57;;
40022;SDS011;25713;-35.352;149.036;2023-08-07T06:11:03;0.55;;;0.40;;
40022;SDS011;25713;-35.352;149.036;2023-08-07T06:13:34;1.08;;;0.50;;
40022;SDS011;25713;-35.352;149.036;2023-08-07T06:16:04;1.10;;;0.52;;
40022;SDS011;25713;-35.352;149.036;2023-08-07T06:18:33;4.15;;;0.68;;
40022;SDS011;25713;-35.352;149.036;2023-08-07T06:21:03;1.15;;;0.60;;
40022;SDS011;25713;-35.352;149.036;2023-08-07T06:23:32;1.05;;;0.60;;
40022;SDS011;25713;-35.352;149.036;2023-08-07T06:26:02;1.58;;;0.43;;
40022;SDS011;25713;-35.352;149.036;2023-08-07T06:28:33;0.98;;;0.50;;
40022;SDS011;25713;-35.352;149.036;2023-08-07T06:31:03;1.23;;;0.60;;
40022;SDS011;25713;-35.352;149.036;2023-08-07T06:33:33;0.90;;;0.40;;
40022;SDS011;25713;-35.352;149.036;2023-08-07T06:36:03;1.40;;;0.43;;
40022;SDS011;25713;-35.352;149.036;2023-08-07T06:38:32;1.77;;;0.60;;
40022;SDS011;25713;-35.352;149.036;2023-08-07T06:41:02;1.92;;;0.80;;
40022;SDS011;25713;-35.352;149.036;2023-08-07T06:43:33;0.57;;;0.50;;
40022;SDS011;25713;-35.352;149.036;2023-08-07T06:46:03;2.05;;;0.60;;
40022;SDS011;25713;-35.352;149.036;2023-08-07T06:48:32;0.75;;;0.55;;
40022;SDS011;25713;-35.352;149.036;2023-08-07T06:51:01;1.15;;;0.50;;
40022;SDS011;25713;-35.352;149.036;2023-08-07T06:53:31;0.85;;;0.57;;
40022;SDS011;25713;-35.352;149.036;2023-08-07T06:56:00;0.50;;;0.47;;
40022;SDS011;25713;-35.352;149.036;2023-08-07T06:58:30;1.13;;;0.50;;
40022;SDS011;25713;-35.352;149.036;2023-08-07T07:01:01;0.77;;;0.60;;
40022;SDS011;25713;-35.352;149.036;2023-08-07T07:03:31;0.65;;;0.40;;
40022;SDS011;25713;-35.352;149.036;2023-08-07T07:06:00;1.08;;;0.60;;
40022;SDS011;25713;-35.352;149.036;2023-08-07T07:08:33;1.05;;;0.60;;
40022;SDS011;25713;-35.352;149.036;2023-08-07T07:13:31;0.80;;;0.80;;
40022;SDS011;25713;-35.352;149.036;2023-08-07T07:16:03;1.42;;;0.68;;
40022;SDS011;25713;-35.352;149.036;2023-08-07T07:18:32;0.80;;;0.70;;
40022;SDS011;25713;-35.352;149.036;2023-08-07T07:21:02;1.05;;;0.52;;
40022;SDS011;25713;-35.352;149.036;2023-08-07T07:23:31;0.75;;;0.50;;
40022;SDS011;25713;-35.352;149.036;2023-08-07T07:26:01;0.40;;;0.40;;
40022;SDS011;25713;-35.352;149.036;2023-08-07T07:28:30;1.83;;;0.50;;
40022;SDS011;25713;-35.352;149.036;2023-08-07T07:31:02;0.70;;;0.50;;
40022;SDS011;25713;-35.352;149.036;2023-08-07T07:33:32;0.73;;;0.50;;
40022;SDS011;25713;-35.352;149.036;2023-08-07T07:36:01;2.13;;;0.75;;
40022;SDS011;25713;-35.352;149.036;2023-08-07T07:38:31;1.23;;;0.60;;
40022;SDS011;25713;-35.352;149.036;2023-08-07T07:41:00;0.60;;;0.50;;
40022;SDS011;25713;-35.352;149.036;2023-08-07T07:43:30;0.40;;;0.40;;
40022;SDS011;25713;-35.352;149.036;2023-08-07T07:45:59;0.65;;;0.50;;
40022;SDS011;25713;-35.352;149.036;2023-08-07T07:48:31;0.60;;;0.60;;
40022;SDS011;25713;-35.352;149.036;2023-08-07T07:51:01;0.75;;;0.52;;
40022;SDS011;25713;-35.352;149.036;2023-08-07T07:53:30;1.23;;;0.60;;
40022;SDS011;25713;-35.352;149.036;2023-08-07T07:56:00;1.45;;;0.50;;
40022;SDS011;25713;-35.352;149.036;2023-08-07T07:58:29;0.75;;;0.50;;
40022;SDS011;25713;-35.352;149.036;2023-08-07T08:00:59;0.60;;;0.50;;
40022;SDS011;25713;-35.352;149.036;2023-08-07T08:03:30;1.80;;;0.63;;
40022;SDS011;25713;-35.352;149.036;2023-08-07T08:06:00;1.13;;;0.70;;
40022;SDS011;25713;-35.352;149.036;2023-08-07T08:08:29;0.73;;;0.50;;
40022;SDS011;25713;-35.352;149.036;2023-08-07T08:10:59;0.82;;;0.55;;
40022;SDS011;25713;-35.352;149.036;2023-08-07T08:13:28;1.10;;;0.60;;
40022;SDS011;25713;-35.352;149.036;2023-08-07T08:15:58;1.35;;;0.70;;
40022;SDS011;25713;-35.352;149.036;2023-08-07T08:18:29;1.60;;;0.60;;
40022;SDS011;25713;-35.352;149.036;2023-08-07T08:20:59;1.20;;;0.60;;
40022;SDS011;25713;-35.352;149.036;2023-08-07T08:23:28;1.98;;;0.50;;
40022;SDS011;25713;-35.352;149.036;2023-08-07T08:25:57;1.05;;;0.60;;
40022;SDS011;25713;-35.352;149.036;2023-08-07T08:28:27;1.38;;;0.70;;
40022;SDS011;25713;-35.352;149.036;2023-08-07T08:30:56;0.70;;;0.70;;
40022;SDS011;25713;-35.352;149.036;2023-08-07T08:33:26;1.20;;;0.57;;
40022;SDS011;25713;-35.352;149.036;2023-08-07T08:35:57;1.38;;;0.98;;
40022;SDS011;25713;-35.352;149.036;2023-08-07T08:38:26;1.02;;;0.65;;
40022;SDS011;25713;-35.352;149.036;2023-08-07T08:40:56;1.75;;;0.60;;
40022;SDS011;25713;-35.352;149.036;2023-08-07T08:43:26;0.77;;;0.77;;
40022;SDS011;25713;-35.352;149.036;2023-08-07T08:46:01;1.23;;;0.80;;
40022;SDS011;25713;-35.352;149.036;2023-08-07T08:48:35;0.70;;;0.60;;
40022;SDS011;25713;-35.352;149.036;2023-08-07T08:51:08;0.63;;;0.50;;
40022;SDS011;25713;-35.352;149.036;2023-08-07T08:53:38;0.90;;;0.60;;
40022;SDS011;25713;-35.352;149.036;2023-08-07T08:56:08;0.80;;;0.63;;
40022;SDS011;25713;-35.352;149.036;2023-08-07T08:58:38;2.95;;;0.63;;
40022;SDS011;25713;-35.352;149.036;2023-08-07T09:01:08;0.50;;;0.50;;
40022;SDS011;25713;-35.352;149.036;2023-08-07T09:03:41;0.50;;;0.50;;
40022;SDS011;25713;-35.352;149.036;2023-08-07T09:08:40;0.80;;;0.60;;
40022;SDS011;25713;-35.352;149.036;2023-08-07T09:11:10;1.55;;;0.90;;
40022;SDS011;25713;-35.352;149.036;2023-08-07T09:13:41;1.10;;;0.60;;
40022;SDS011;25713;-35.352;149.036;2023-08-07T09:16:12;1.40;;;0.60;;
40022;SDS011;25713;-35.352;149.036;2023-08-07T09:18:44;1.48;;;0.60;;
40022;SDS011;25713;-35.352;149.036;2023-08-07T09:21:14;1.15;;;0.70;;
40022;SDS011;25713;-35.352;149.036;2023-08-07T09:23:43;0.60;;;0.60;;
40022;SDS011;25713;-35.352;149.036;2023-08-07T09:26:13;1.05;;;0.60;;
40022;SDS011;25713;-35.352;149.036;2023-08-07T09:28:48;1.65;;;0.70;;
40022;SDS011;25713;-35.352;149.036;2023-08-07T09:31:20;1.00;;;0.70;;
40022;SDS011;25713;-35.352;149.036;2023-08-07T09:33:54;1.20;;;0.75;;
40022;SDS011;25713;-35.352;149.036;2023-08-07T09:36:29;1.60;;;1.02;;
40022;SDS011;25713;-35.352;149.036;2023-08-07T09:39:00;0.73;;;0.73;;
40022;SDS011;25713;-35.352;149.036;2023-08-07T09:41:30;2.28;;;0.63;;
40022;SDS011;25713;-35.352;149.036;2023-08-07T09:44:00;0.43;;;0.40;;
40022;SDS011;25713;-35.352;149.036;2023-08-07T09:46:40;0.98;;;0.60;;
40022;SDS011;25713;-35.352;149.036;2023-08-07T09:49:14;0.80;;;0.50;;
40022;SDS011;25713;-35.352;149.036;2023-08-07T09:51:44;1.42;;;0.52;;
40022;SDS011;25713;-35.352;149.036;2023-08-07T09:54:14;0.70;;;0.50;;
40022;SDS011;25713;-35.352;149.036;2023-08-07T09:56:44;0.57;;;0.50;;
40022;SDS011;25713;-35.352;149.036;2023-08-07T09:59:15;1.50;;;0.60;;
40022;SDS011;25713;-35.352;149.036;2023-08-07T10:01:46;2.38;;;0.70;;
40022;SDS011;25713;-35.352;149.036;2023-08-07T10:04:18;1.40;;;0.70;;
40022;SDS011;25713;-35.352;149.036;2023-08-07T10:06:48;0.70;;;0.50;;
40022;SDS011;25713;-35.352;149.036;2023-08-07T10:09:19;1.15;;;0.60;;
40022;SDS011;25713;-35.352;149.036;2023-08-07T10:11:49;1.67;;;0.50;;
40022;SDS011;25713;-35.352;149.036;2023-08-07T10:14:19;0.60;;;0.60;;
40022;SDS011;25713;-35.352;149.036;2023-08-07T10:16:49;1.23;;;0.60;;
40022;SDS011;25713;-35.352;149.036;2023-08-07T10:19:23;2.28;;;0.70;;
40022;SDS011;25713;-35.352;149.036;2023-08-07T10:21:53;0.68;;;0.52;;
40022;SDS011;25713;-35.352;149.036;2023-08-07T10:24:23;0.80;;;0.60;;
40022;SDS011;25713;-35.352;149.036;2023-08-07T10:26:54;0.63;;;0.63;;
40022;SDS011;25713;-35.352;149.036;2023-08-07T10:29:28;0.50;;;0.50;;
40022;SDS011;25713;-35.352;149.036;2023-08-07T10:31:59;0.55;;;0.55;;
40022;SDS011;25713;-35.352;149.036;2023-08-07T10:34:34;0.77;;;0.50;;
40022;SDS011;25713;-35.352;149.036;2023-08-07T10:37:06;1.13;;;0.60;;
40022;SDS011;25713;-35.352;149.036;2023-08-07T10:39:35;0.60;;;0.40;;
40022;SDS011;25713;-35.352;149.036;2023-08-07T10:42:25;0.98;;;0.70;;
40022;SDS011;25713;-35.352;149.036;2023-08-07T10:44:55;0.77;;;0.70;;
40022;SDS011;25713;-35.352;149.036;2023-08-07T10:47:33;1.73;;;0.73;;
40022;SDS011;25713;-35.352;149.036;2023-08-07T10:50:06;1.00;;;0.55;;
40022;SDS011;25713;-35.352;149.036;2023-08-07T10:52:38;1.08;;;0.63;;
40022;SDS011;25713;-35.352;149.036;2023-08-07T10:55:13;0.82;;;0.75;;
40022;SDS011;25713;-35.352;149.036;2023-08-07T10:57:42;0.95;;;0.70;;
40022;SDS011;25713;-35.352;149.036;2023-08-07T11:00:14;1.47;;;0.80;;
40022;SDS011;25713;-35.352;149.036;2023-08-07T11:02:47;1.20;;;0.90;;
40022;SDS011;25713;-35.352;149.036;2023-08-07T11:05:21;1.27;;;0.90;;
40022;SDS011;25713;-35.352;149.036;2023-08-07T11:07:52;1.35;;;1.00;;
40022;SDS011;25713;-35.352;149.036;2023-08-07T11:10:23;1.50;;;0.95;;
40022;SDS011;25713;-35.352;149.036;2023-08-07T11:12:53;1.55;;;1.10;;
40022;SDS011;25713;-35.352;149.036;2023-08-07T11:15:27;1.27;;;1.00;;
40022;SDS011;25713;-35.352;149.036;2023-08-07T11:17:56;2.78;;;1.38;;
40022;SDS011;25713;-35.352;149.036;2023-08-07T11:20:28;2.88;;;1.30;;
40022;SDS011;25713;-35.352;149.036;2023-08-07T11:22:58;3.28;;;1.40;;
40022;SDS011;25713;-35.352;149.036;2023-08-07T11:25:28;2.55;;;1.48;;
40022;SDS011;25713;-35.352;149.036;2023-08-07T11:27:57;1.83;;;1.20;;
40022;SDS011;25713;-35.352;149.036;2023-08-07T11:30:27;1.75;;;1.50;;
40022;SDS011;25713;-35.352;149.036;2023-08-07T11:32:57;3.10;;;1.83;;
40022;SDS011;25713;-35.352;149.036;2023-08-07T11:35:29;2.30;;;1.42;;
40022;SDS011;25713;-35.352;149.036;2023-08-07T11:37:59;2.60;;;1.42;;
40022;SDS011;25713;-35.352;149.036;2023-08-07T11:40:28;1.60;;;1.38;;
40022;SDS011;25713;-35.352;149.036;2023-08-07T11:42:58;1.77;;;1.63;;
40022;SDS011;25713;-35.352;149.036;2023-08-07T11:45:27;1.65;;;1.55;;
40022;SDS011;25713;-35.352;149.036;2023-08-07T11:47:57;2.85;;;1.73;;
40022;SDS011;25713;-35.352;149.036;2023-08-07T11:50:29;2.53;;;1.77;;
40022;SDS011;25713;-35.352;149.036;2023-08-07T11:52:59;2.75;;;2.05;;
40022;SDS011;25713;-35.352;149.036;2023-08-07T11:55:29;2.00;;;1.80;;
40022;SDS011;25713;-35.352;149.036;2023-08-07T11:57:58;2.95;;;2.10;;
40022;SDS011;25713;-35.352;149.036;2023-08-07T12:00:31;3.10;;;1.77;;
40022;SDS011;25713;-35.352;149.036;2023-08-07T12:03:01;2.75;;;1.77;;
40022;SDS011;25713;-35.352;149.036;2023-08-07T12:05:41;3.55;;;2.10;;
40022;SDS011;25713;-35.352;149.036;2023-08-07T12:08:11;2.00;;;1.63;;
40022;SDS011;25713;-35.352;149.036;2023-08-07T12:10:41;3.17;;;2.00;;
40022;SDS011;25713;-35.352;149.036;2023-08-07T12:13:11;2.90;;;1.92;;
40022;SDS011;25713;-35.352;149.036;2023-08-07T12:15:41;2.70;;;1.80;;
40022;SDS011;25713;-35.352;149.036;2023-08-07T12:18:11;2.50;;;1.88;;
40022;SDS011;25713;-35.352;149.036;2023-08-07T12:20:44;3.15;;;1.95;;
40022;SDS011;25713;-35.352;149.036;2023-08-07T12:23:14;2.33;;;1.77;;
40022;SDS011;25713;-35.352;149.036;2023-08-07T12:25:44;2.85;;;1.80;;
40022;SDS011;25713;-35.352;149.036;2023-08-07T12:28:14;2.72;;;2.20;;
40022;SDS011;25713;-35.352;149.036;2023-08-07T12:30:44;2.83;;;1.95;;
40022;SDS011;25713;-35.352;149.036;2023-08-07T12:33:14;2.78;;;2.05;;
40022;SDS011;25713;-35.352;149.036;2023-08-07T12:35:47;2.47;;;2.00;;
40022;SDS011;25713;-35.352;149.036;2023-08-07T12:38:17;2.40;;;1.90;;
40022;SDS011;25713;-35.352;149.036;2023-08-07T12:40:46;3.28;;;2.03;;
40022;SDS011;25713;-35.352;149.036;2023-08-07T12:43:16;2.20;;;1.70;;
40022;SDS011;25713;-35.352;149.036;2023-08-07T12:45:45;2.50;;;1.60;;
40022;SDS011;25713;-35.352;149.036;2023-08-07T12:48:15;2.47;;;1.70;;
40022;SDS011;25713;-35.352;149.036;2023-08-07T12:50:46;1.92;;;1.60;;
40022;SDS011;25713;-35.352;149.036;2023-08-07T12:53:16;2.55;;;1.70;;
40022;SDS011;25713;-35.352;149.036;2023-08-07T12:55:46;1.85;;;1.45;;
40022;SDS011;25713;-35.352;149.036;2023-08-07T12:58:15;1.60;;;1.42;;
40022;SDS011;25713;-35.352;149.036;2023-08-07T13:00:45;1.55;;;1.45;;
40022;SDS011;25713;-35.352;149.036;2023-08-07T13:03:14;3.53;;;1.50;;
40022;SDS011;25713;-35.352;149.036;2023-08-07T13:05:43;1.80;;;1.42;;
40022;SDS011;25713;-35.352;149.036;2023-08-07T13:08:15;2.33;;;1.40;;
40022;SDS011;25713;-35.352;149.036;2023-08-07T13:10:44;1.98;;;1.60;;
40022;SDS011;25713;-35.352;149.036;2023-08-07T13:13:14;1.70;;;1.40;;
40022;SDS011;25713;-35.352;149.036;2023-08-07T13:15:44;1.33;;;1.20;;
40022;SDS011;25713;-35.352;149.036;2023-08-07T13:18:13;2.67;;;1.60;;
40022;SDS011;25713;-35.352;149.036;2023-08-07T13:20:43;2.95;;;1.40;;
40022;SDS011;25713;-35.352;149.036;2023-08-07T13:23:15;2.03;;;1.42;;
40022;SDS011;25713;-35.352;149.036;2023-08-07T13:25:45;1.73;;;1.25;;
40022;SDS011;25713;-35.352;149.036;2023-08-07T13:28:14;1.85;;;1.40;;
40022;SDS011;25713;-35.352;149.036;2023-08-07T13:30:44;1.90;;;1.10;;
40022;SDS011;25713;-35.352;149.036;2023-08-07T13:33:14;1.88;;;1.20;;
40022;SDS011;25713;-35.352;149.036;2023-08-07T13:35:43;1.70;;;1.10;;
40022;SDS011;25713;-35.352;149.036;2023-08-07T13:38:16;1.33;;;1.10;;
40022;SDS011;25713;-35.352;149.036;2023-08-07T13:40:45;2.10;;;1.25;;
40022;SDS011;25713;-35.352;149.036;2023-08-07T13:43:15;1.27;;;1.15;;
40022;SDS011;25713;-35.352;149.036;2023-08-07T13:45:45;1.52;;;1.08;;
40022;SDS011;25713;-35.352;149.036;2023-08-07T13:48:14;1.70;;;1.10;;
40022;SDS011;25713;-35.352;149.036;2023-08-07T13:50:44;1.85;;;1.17;;
40022;SDS011;25713;-35.352;149.036;2023-08-07T13:53:17;1.25;;;1.05;;
40022;SDS011;25713;-35.352;149.036;2023-08-07T13:55:46;1.90;;;1.08;;
40022;SDS011;25713;-35.352;149.036;2023-08-07T13:58:16;1.73;;;0.98;;
40022;SDS011;25713;-35.352;149.036;2023-08-07T14:00:46;1.67;;;1.20;;
40022;SDS011;25713;-35.352;149.036;2023-08-07T14:03:15;2.25;;;1.20;;
40022;SDS011;25713;-35.352;149.036;2023-08-07T14:05:44;1.25;;;0.90;;
40022;SDS011;25713;-35.352;149.036;2023-08-07T14:08:17;1.63;;;1.10;;
40022;SDS011;25713;-35.352;149.036;2023-08-07T14:10:47;1.23;;;1.10;;
40022;SDS011;25713;-35.352;149.036;2023-08-07T14:13:16;1.35;;;0.98;;
40022;SDS011;25713;-35.352;149.036;2023-08-07T14:15:46;1.30;;;1.08;;
40022;SDS011;25713;-35.352;149.036;2023-08-07T14:18:15;1.88;;;1.10;;
40022;SDS011;25713;-35.352;149.036;2023-08-07T14:20:45;2.17;;;1.10;;
40022;SDS011;25713;-35.352;149.036;2023-08-07T14:23:18;1.38;;;1.00;;
40022;SDS011;25713;-35.352;149.036;2023-08-07T14:25:47;1.40;;;0.95;;
40022;SDS011;25713;-35.352;149.036;2023-08-07T14:28:17;2.42;;;1.10;;
40022;SDS011;25713;-35.352;149.036;2023-08-07T14:30:47;2.78;;;1.10;;
40022;SDS011;25713;-35.352;149.036;2023-08-07T14:33:17;2.03;;;1.00;;
40022;SDS011;25713;-35.352;149.036;2023-08-07T14:35:46;1.50;;;1.05;;